Time;durP1;ratioP1;P1;durP2;ratioP2;P2;SDS_P1;SDS_P2;PMS_P1;PMS_P2;Temp;Humidity;BMP_temperature;BMP_pressure;BME280_temperature;BME280_humidity;BME280_pressure;Samples;Min_cycle;Max_cycle;Signal;HPM_P1;HPM_P2
2022/12/23 00:00:10;;;;;;;1.10;1.10;;;9.80;99.90;;;;;;494018;241;28021;-74
2022/12/23 00:02:11;;;;;;;1.00;1.00;;;9.80;99.90;;;;;;494099;241;28085;-74
2022/12/23 00:04:13;;;;;;;1.90;1.03;;;9.80;99.90;;;;;;494053;241;27948;-73
2022/12/23 00:06:14;;;;;;;0.90;0.90;;;9.80;99.90;;;;;;494126;241;27970;-74
2022/12/23 00:08:15;;;;;;;1.10;1.10;;;9.90;99.90;;;;;;494047;241;27930;-73
2022/12/23 00:10:16;;;;;;;1.10;1.10;;;9.90;99.90;;;;;;494155;241;28048;-74
2022/12/23 00:16:57;;;;;;;1.00;0.80;;;10.00;99.90;;;;;;494165;241;27980;-73
2022/12/23 00:18:58;;;;;;;0.80;0.80;;;10.00;99.90;;;;;;494175;241;27939;-74
2022/12/23 00:20:59;;;;;;;0.90;0.90;;;10.10;99.90;;;;;;493933;241;27988;-74
2022/12/23 00:23:06;;;;;;;0.80;0.80;;;10.10;99.90;;;;;;494069;241;28034;-73
2022/12/23 00:25:08;;;;;;;1.63;0.90;;;10.10;99.90;;;;;;494107;241;27806;-74
2022/12/23 00:27:09;;;;;;;0.80;0.80;;;10.10;99.90;;;;;;494130;241;28596;-74
2022/12/23 00:29:10;;;;;;;0.90;0.90;;;10.10;99.90;;;;;;494037;241;28468;-74
2022/12/23 00:31:12;;;;;;;0.77;0.77;;;10.10;99.90;;;;;;494119;241;28463;-74
2022/12/23 00:33:13;;;;;;;0.97;0.97;;;10.10;99.90;;;;;;494117;241;27956;-74
2022/12/23 00:35:14;;;;;;;1.00;1.00;;;10.10;99.90;;;;;;494138;241;27927;-74
2022/12/23 00:37:15;;;;;;;1.00;0.97;;;10.10;99.90;;;;;;494029;241;27751;-75
2022/12/23 00:43:56;;;;;;;1.70;0.90;;;10.20;99.90;;;;;;494066;241;28481;-74
2022/12/23 00:45:57;;;;;;;0.80;0.80;;;10.20;99.90;;;;;;494136;241;28163;-74
2022/12/23 00:50:18;;;;;;;0.80;0.80;;;10.30;99.90;;;;;;494156;241;27835;-73
2022/12/23 00:52:19;;;;;;;1.00;1.00;;;10.30;99.90;;;;;;494066;241;27949;-74
2022/12/23 00:54:20;;;;;;;1.10;1.00;;;10.40;99.90;;;;;;494079;241;28042;-73
2022/12/23 00:56:21;;;;;;;0.90;0.90;;;10.40;99.90;;;;;;493999;241;28404;-73
2022/12/23 00:58:23;;;;;;;1.00;1.00;;;10.40;99.90;;;;;;494085;241;28053;-74
2022/12/23 01:07:04;;;;;;;1.67;1.10;;;10.60;99.90;;;;;;494051;241;28025;-75
2022/12/23 01:09:05;;;;;;;1.30;1.20;;;10.60;99.90;;;;;;494003;241;27958;-74
2022/12/23 01:11:07;;;;;;;1.20;1.20;;;10.70;99.90;;;;;;494028;241;27975;-74
2022/12/23 01:13:08;;;;;;;1.20;1.20;;;10.60;99.90;;;;;;494065;241;27955;-74
2022/12/23 01:15:09;;;;;;;1.07;1.07;;;10.60;99.90;;;;;;494102;241;28077;-74
2022/12/23 01:17:10;;;;;;;1.20;1.10;;;10.70;99.90;;;;;;493853;241;28524;-74
2022/12/23 01:19:12;;;;;;;1.10;1.10;;;10.70;99.90;;;;;;494138;241;28462;-74
2022/12/23 01:21:13;;;;;;;1.47;1.27;;;10.70;99.90;;;;;;494103;241;28522;-74
2022/12/23 01:23:14;;;;;;;1.10;1.10;;;10.70;99.90;;;;;;494104;241;27969;-75
2022/12/23 01:25:15;;;;;;;1.07;1.07;;;10.70;99.90;;;;;;494156;241;27933;-73
2022/12/23 01:27:17;;;;;;;2.00;1.00;;;10.70;99.90;;;;;;494142;241;28063;-75
2022/12/23 01:29:18;;;;;;;1.20;1.10;;;10.70;99.90;;;;;;494150;241;28087;-75
2022/12/23 01:31:19;;;;;;;1.40;1.30;;;10.70;99.90;;;;;;493941;241;27923;-74
2022/12/23 01:33:20;;;;;;;1.03;1.03;;;10.70;99.90;;;;;;494066;241;27852;-75
2022/12/23 01:35:22;;;;;;;1.23;1.13;;;10.70;99.90;;;;;;494051;241;27966;-74
2022/12/23 01:37:23;;;;;;;1.30;1.20;;;10.70;99.90;;;;;;494063;241;27974;-74
2022/12/23 01:39:24;;;;;;;4.73;1.50;;;10.80;99.90;;;;;;494068;241;28090;-74
2022/12/23 01:43:45;;;;;;;2.40;1.17;;;10.80;99.90;;;;;;494135;241;28443;-74
2022/12/23 01:45:46;;;;;;;1.40;1.30;;;10.80;99.90;;;;;;494027;241;28446;-75
2022/12/23 01:47:47;;;;;;;1.40;1.30;;;10.70;99.90;;;;;;494062;241;28351;-74
2022/12/23 01:49:49;;;;;;;1.90;1.20;;;10.80;99.90;;;;;;494066;241;27982;-75
2022/12/23 01:51:50;;;;;;;1.30;1.20;;;10.80;99.90;;;;;;494035;241;28066;-75
2022/12/23 01:53:51;;;;;;;1.50;1.40;;;10.80;99.90;;;;;;494144;241;27865;-74
2022/12/23 01:55:52;;;;;;;1.20;1.20;;;10.80;99.90;;;;;;494038;241;27987;-74
2022/12/23 01:57:54;;;;;;;1.70;1.10;;;10.80;99.90;;;;;;494029;241;27991;-74
2022/12/23 02:04:34;;;;;;;4.13;1.40;;;10.70;99.90;;;;;;494136;241;27950;-74
2022/12/23 02:11:14;;;;;;;2.30;1.20;;;10.70;99.90;;;;;;494037;241;27864;-74
2022/12/23 02:13:15;;;;;;;2.03;1.37;;;10.70;99.90;;;;;;494051;241;27953;-74
2022/12/23 02:17:36;;;;;;;2.60;1.30;;;10.70;99.90;;;;;;493949;241;27988;-74
2022/12/23 02:19:37;;;;;;;3.13;1.30;;;10.70;99.90;;;;;;494047;241;27987;-74
2022/12/23 02:21:39;;;;;;;1.70;1.30;;;10.70;99.90;;;;;;494123;241;27961;-74
2022/12/23 02:23:40;;;;;;;1.47;1.37;;;10.60;99.90;;;;;;494052;241;28447;-74
2022/12/23 02:25:41;;;;;;;1.10;1.10;;;10.60;99.90;;;;;;494034;241;28370;-73
2022/12/23 02:27:42;;;;;;;1.27;1.00;;;10.60;99.90;;;;;;494015;241;28552;-75
2022/12/23 02:29:44;;;;;;;2.20;1.20;;;10.60;99.90;;;;;;494091;241;27970;-74
2022/12/23 02:31:45;;;;;;;2.10;1.33;;;10.60;99.90;;;;;;494149;241;27879;-74
2022/12/23 02:33:46;;;;;;;1.40;1.30;;;10.50;99.90;;;;;;494048;241;28148;-74
2022/12/23 02:35:47;;;;;;;1.20;1.20;;;10.50;99.90;;;;;;494089;241;27941;-74
2022/12/23 02:37:49;;;;;;;1.40;1.30;;;10.50;99.90;;;;;;493835;241;27988;-74
2022/12/23 02:39:50;;;;;;;1.37;1.27;;;10.50;99.90;;;;;;494058;241;27875;-75
2022/12/23 02:41:51;;;;;;;1.40;1.30;;;10.50;99.90;;;;;;494174;241;28020;-74
2022/12/23 02:43:52;;;;;;;1.23;1.23;;;10.60;99.90;;;;;;494056;241;27753;-74
2022/12/23 02:45:54;;;;;;;1.20;1.00;;;10.50;99.90;;;;;;494130;241;28010;-75
2022/12/23 02:47:55;;;;;;;1.23;1.10;;;10.60;99.90;;;;;;494122;241;28306;-76
2022/12/23 02:49:56;;;;;;;1.00;1.00;;;10.50;99.90;;;;;;494053;241;28686;-74
2022/12/23 02:51:57;;;;;;;1.07;1.07;;;10.50;99.90;;;;;;494053;241;28489;-75
2022/12/23 02:53:59;;;;;;;1.13;1.13;;;10.40;99.90;;;;;;494064;241;27978;-74
2022/12/23 02:56:00;;;;;;;1.37;1.30;;;10.40;99.90;;;;;;494055;241;27823;-74
2022/12/23 02:58:01;;;;;;;1.00;1.00;;;10.40;99.90;;;;;;494079;241;27971;-73
2022/12/23 03:00:02;;;;;;;1.00;1.00;;;10.40;99.90;;;;;;494127;241;28058;-74
2022/12/23 03:02:04;;;;;;;1.97;1.10;;;10.40;99.90;;;;;;494083;241;28060;-74
2022/12/23 03:04:05;;;;;;;0.90;0.90;;;10.40;99.90;;;;;;494083;241;27980;-75
2022/12/23 03:06:06;;;;;;;1.40;1.17;;;10.40;99.90;;;;;;494118;241;27924;-73
2022/12/23 03:08:07;;;;;;;1.90;1.00;;;10.40;99.90;;;;;;494122;241;27989;-75
2022/12/23 03:10:09;;;;;;;1.13;1.03;;;10.40;99.90;;;;;;494127;241;28080;-75
2022/12/23 03:12:10;;;;;;;1.27;1.17;;;10.40;99.90;;;;;;493977;241;28379;-75
2022/12/23 03:14:11;;;;;;;2.40;0.80;;;10.40;99.90;;;;;;494117;241;28576;-75
2022/12/23 03:16:12;;;;;;;2.03;0.87;;;10.30;99.90;;;;;;494117;241;28334;-75
2022/12/23 03:18:14;;;;;;;0.90;0.90;;;10.30;99.90;;;;;;494098;241;28553;-75
2022/12/23 03:20:15;;;;;;;1.17;1.00;;;10.30;99.90;;;;;;494073;241;27918;-73
2022/12/23 03:22:16;;;;;;;1.27;1.17;;;10.30;99.90;;;;;;494142;241;27932;-75
2022/12/23 03:24:17;;;;;;;1.23;1.10;;;10.20;99.90;;;;;;494098;241;27977;-74
2022/12/23 03:26:19;;;;;;;1.10;1.10;;;10.20;99.90;;;;;;494128;241;28025;-74
2022/12/23 03:28:20;;;;;;;1.00;1.00;;;10.20;99.90;;;;;;494114;241;27981;-75
2022/12/23 03:30:21;;;;;;;0.87;0.87;;;10.10;99.90;;;;;;494128;241;27967;-74
2022/12/23 03:32:22;;;;;;;0.90;0.90;;;10.10;99.90;;;;;;494102;241;27856;-75
2022/12/23 03:34:24;;;;;;;0.90;0.90;;;10.20;99.90;;;;;;494115;241;27724;-74
2022/12/23 03:36:25;;;;;;;1.03;0.97;;;10.20;99.90;;;;;;494070;241;27956;-75
2022/12/23 03:38:26;;;;;;;2.40;1.10;;;10.10;99.90;;;;;;494064;241;28485;-74
2022/12/23 03:40:27;;;;;;;1.47;1.13;;;10.10;99.90;;;;;;494055;241;28336;-74
2022/12/23 03:42:29;;;;;;;1.00;0.90;;;10.10;99.90;;;;;;494059;237;28035;-74
2022/12/23 03:44:30;;;;;;;0.93;0.90;;;10.10;99.90;;;;;;494078;241;27975;-74
2022/12/23 03:46:31;;;;;;;0.93;0.93;;;10.10;99.90;;;;;;494065;241;27978;-75
2022/12/23 03:48:32;;;;;;;0.93;0.90;;;10.10;99.90;;;;;;494043;241;28096;-74
2022/12/23 03:50:34;;;;;;;0.90;0.90;;;10.10;99.90;;;;;;494048;241;27963;-74
2022/12/23 03:52:35;;;;;;;1.37;1.00;;;10.10;99.90;;;;;;494031;237;28043;-74
2022/12/23 03:54:36;;;;;;;0.90;0.90;;;10.10;99.90;;;;;;494054;241;27986;-74
2022/12/23 03:56:37;;;;;;;1.27;1.00;;;10.10;99.90;;;;;;494112;241;27787;-75
2022/12/23 03:58:39;;;;;;;0.97;0.97;;;10.20;99.90;;;;;;494051;241;28052;-74
2022/12/23 04:00:40;;;;;;;0.97;0.97;;;10.20;99.90;;;;;;494126;241;27748;-75
2022/12/23 04:02:41;;;;;;;0.90;0.90;;;10.20;99.90;;;;;;494137;241;28567;-75
2022/12/23 04:04:42;;;;;;;1.50;1.13;;;10.20;99.90;;;;;;494036;241;28083;-74
2022/12/23 04:06:44;;;;;;;0.90;0.90;;;10.20;99.90;;;;;;494025;241;28395;-74
2022/12/23 04:08:45;;;;;;;0.97;0.90;;;10.20;99.90;;;;;;494003;241;28541;-75
2022/12/23 04:10:46;;;;;;;1.00;0.90;;;10.20;99.90;;;;;;494095;241;27973;-74
2022/12/23 04:12:47;;;;;;;1.20;1.10;;;10.20;99.90;;;;;;494129;241;28129;-74
2022/12/23 04:14:49;;;;;;;0.90;0.90;;;10.20;99.90;;;;;;494130;241;27928;-74
2022/12/23 04:16:50;;;;;;;1.00;1.00;;;10.10;99.90;;;;;;494121;241;27689;-74
2022/12/23 04:18:51;;;;;;;2.00;1.37;;;10.10;99.90;;;;;;494152;241;28149;-74
2022/12/23 04:20:53;;;;;;;1.40;1.30;;;10.10;99.90;;;;;;494144;241;28350;-74
2022/12/23 04:22:54;;;;;;;1.00;1.00;;;10.20;99.90;;;;;;494132;241;27849;-74
2022/12/23 04:24:55;;;;;;;4.80;1.30;;;10.10;99.90;;;;;;494099;241;28108;-75
2022/12/23 04:26:56;;;;;;;1.07;0.90;;;10.20;99.90;;;;;;494119;241;28385;-73
2022/12/23 04:28:58;;;;;;;1.10;1.10;;;10.20;99.90;;;;;;494111;241;28321;-73
2022/12/23 04:30:59;;;;;;;1.60;1.13;;;10.20;99.90;;;;;;494060;241;28478;-74
2022/12/23 04:33:00;;;;;;;1.33;1.30;;;10.20;99.90;;;;;;494044;241;28395;-74
2022/12/23 04:35:01;;;;;;;2.20;1.30;;;10.20;99.90;;;;;;494080;241;28065;-75
2022/12/23 04:37:03;;;;;;;1.67;1.57;;;10.10;99.90;;;;;;493982;241;27941;-74
2022/12/23 04:39:04;;;;;;;2.83;1.50;;;10.20;99.90;;;;;;494010;241;27637;-75
2022/12/23 04:41:05;;;;;;;1.60;1.50;;;10.10;99.90;;;;;;494077;241;27617;-75
2022/12/23 04:43:06;;;;;;;1.63;1.53;;;10.10;99.90;;;;;;494038;241;28045;-74
2022/12/23 04:45:08;;;;;;;1.90;1.70;;;10.10;99.90;;;;;;494060;241;28117;-74
2022/12/23 04:47:09;;;;;;;1.80;1.70;;;10.10;99.90;;;;;;494137;241;27581;-74
2022/12/23 04:49:10;;;;;;;3.47;1.83;;;10.10;99.90;;;;;;494113;241;27853;-74
2022/12/23 04:51:11;;;;;;;2.20;1.27;;;10.10;99.90;;;;;;494130;241;27982;-75
2022/12/23 04:53:13;;;;;;;1.50;1.30;;;10.10;99.90;;;;;;494112;241;28408;-74
2022/12/23 04:55:14;;;;;;;1.30;1.20;;;10.10;99.90;;;;;;494115;241;28525;-75
2022/12/23 04:57:15;;;;;;;1.50;1.40;;;10.10;99.90;;;;;;494118;241;30419;-75
2022/12/23 04:59:16;;;;;;;1.70;1.60;;;10.10;99.90;;;;;;494048;241;27994;-74
2022/12/23 05:01:18;;;;;;;1.47;1.37;;;10.10;99.90;;;;;;494073;241;27960;-74
2022/12/23 05:03:19;;;;;;;1.50;1.40;;;10.10;99.90;;;;;;493976;241;27997;-75
2022/12/23 05:05:20;;;;;;;1.20;1.20;;;10.00;99.90;;;;;;494073;241;28098;-75
2022/12/23 05:07:21;;;;;;;1.30;1.20;;;10.00;99.90;;;;;;494060;241;27951;-74
2022/12/23 05:09:23;;;;;;;1.60;1.30;;;10.00;99.90;;;;;;494063;241;28026;-74
2022/12/23 05:11:24;;;;;;;1.60;1.50;;;10.00;99.90;;;;;;494089;241;28186;-73
2022/12/23 05:13:25;;;;;;;1.20;1.20;;;10.00;99.90;;;;;;494125;241;27602;-75
2022/12/23 05:15:26;;;;;;;1.23;1.23;;;10.00;99.90;;;;;;494120;241;28061;-75
2022/12/23 05:17:28;;;;;;;1.30;1.20;;;10.00;99.90;;;;;;494105;241;28402;-75
2022/12/23 05:19:29;;;;;;;1.13;1.13;;;10.00;99.90;;;;;;494060;241;28257;-74
2022/12/23 05:21:30;;;;;;;1.30;1.20;;;10.00;99.90;;;;;;493980;241;28301;-74
2022/12/23 05:23:31;;;;;;;1.37;1.30;;;10.00;99.90;;;;;;493974;241;28261;-74
2022/12/23 05:25:33;;;;;;;1.40;1.30;;;10.00;99.90;;;;;;493899;241;27894;-74
2022/12/23 05:27:34;;;;;;;1.40;1.30;;;10.00;99.90;;;;;;494092;241;27955;-74
2022/12/23 05:29:35;;;;;;;2.37;1.37;;;10.00;99.90;;;;;;494126;241;27645;-74
2022/12/23 05:31:36;;;;;;;2.40;1.20;;;10.00;99.90;;;;;;494052;241;28086;-74
2022/12/23 05:33:38;;;;;;;1.40;1.30;;;10.00;99.90;;;;;;494078;241;27957;-74
2022/12/23 05:35:39;;;;;;;1.40;1.30;;;10.00;99.90;;;;;;494014;241;28085;-75
2022/12/23 05:37:40;;;;;;;1.17;1.03;;;10.00;99.90;;;;;;494065;241;27952;-75
2022/12/23 05:39:41;;;;;;;1.73;1.20;;;10.00;99.90;;;;;;494125;241;28036;-75
2022/12/23 05:41:43;;;;;;;1.40;1.30;;;10.00;99.90;;;;;;494138;241;27870;-74
2022/12/23 05:43:44;;;;;;;1.40;1.40;;;10.00;99.90;;;;;;494092;241;28880;-75
2022/12/23 05:45:45;;;;;;;1.47;1.30;;;10.00;99.90;;;;;;494058;241;28587;-74
2022/12/23 05:47:46;;;;;;;4.00;1.30;;;10.00;99.90;;;;;;494043;241;28405;-74
2022/12/23 05:49:48;;;;;;;2.43;1.43;;;10.00;99.90;;;;;;494112;241;27937;-75
2022/12/23 05:51:49;;;;;;;2.40;1.50;;;10.00;99.90;;;;;;494124;241;28051;-75
2022/12/23 05:53:50;;;;;;;1.40;1.20;;;10.00;99.90;;;;;;494027;241;27669;-74
2022/12/23 05:55:51;;;;;;;1.50;1.40;;;10.00;99.90;;;;;;494079;241;27848;-75
2022/12/23 05:57:53;;;;;;;1.10;1.10;;;10.00;99.90;;;;;;494031;241;28430;-74
2022/12/23 05:59:54;;;;;;;1.20;1.20;;;10.00;99.90;;;;;;494048;241;27572;-74
2022/12/23 06:01:55;;;;;;;1.50;1.40;;;10.00;99.90;;;;;;494060;241;27968;-74
2022/12/23 06:03:56;;;;;;;2.00;1.90;;;10.00;99.90;;;;;;494138;241;27935;-75
2022/12/23 06:05:58;;;;;;;1.50;1.40;;;10.00;99.90;;;;;;494135;241;27974;-75
2022/12/23 06:07:59;;;;;;;1.47;1.40;;;10.00;99.90;;;;;;494134;241;28179;-75
2022/12/23 06:10:00;;;;;;;1.70;1.43;;;10.00;99.90;;;;;;494051;241;28330;-74
2022/12/23 06:12:01;;;;;;;1.63;1.53;;;10.00;99.90;;;;;;494077;241;28481;-75
2022/12/23 06:14:03;;;;;;;4.13;1.83;;;10.00;99.90;;;;;;494034;241;28344;-74
2022/12/23 06:16:04;;;;;;;1.60;1.50;;;10.00;99.90;;;;;;494046;241;28018;-74
2022/12/23 06:18:05;;;;;;;2.07;1.30;;;10.00;99.90;;;;;;494068;241;27981;-74
2022/12/23 06:20:06;;;;;;;2.03;1.70;;;10.00;99.90;;;;;;491156;241;27870;-74
2022/12/23 06:22:08;;;;;;;1.77;1.67;;;10.00;99.90;;;;;;485324;244;27976;-74
2022/12/23 06:24:09;;;;;;;1.70;1.60;;;10.00;99.90;;;;;;485311;244;27796;-74
2022/12/23 06:26:10;;;;;;;1.70;1.60;;;10.00;99.90;;;;;;485337;244;27950;-74
2022/12/23 06:28:11;;;;;;;1.60;1.50;;;10.00;99.90;;;;;;485272;244;27929;-74
2022/12/23 06:30:13;;;;;;;1.70;1.57;;;10.00;99.90;;;;;;485303;244;27979;-74
2022/12/23 06:32:14;;;;;;;2.70;1.57;;;10.00;99.90;;;;;;485377;244;27977;-74
2022/12/23 06:34:15;;;;;;;1.70;1.60;;;10.00;99.90;;;;;;485315;244;28570;-75
2022/12/23 06:36:16;;;;;;;1.50;1.40;;;9.90;99.90;;;;;;490224;238;28508;-75
2022/12/23 06:38:18;;;;;;;1.27;1.20;;;9.90;99.90;;;;;;488533;243;27526;-74
2022/12/23 06:40:20;;;;;;;1.67;1.50;;;9.90;99.90;;;;;;488577;242;28331;-75
2022/12/23 06:42:22;;;;;;;4.00;1.70;;;9.90;99.90;;;;;;488584;242;27838;-74
2022/12/23 06:44:23;;;;;;;1.37;1.33;;;9.90;99.90;;;;;;488504;242;27893;-73
2022/12/23 06:46:24;;;;;;;1.40;1.30;;;9.90;99.90;;;;;;488449;243;27769;-74
2022/12/23 06:48:25;;;;;;;1.50;1.40;;;9.90;99.90;;;;;;488557;243;28179;-74
2022/12/23 06:50:27;;;;;;;1.60;1.50;;;9.90;99.90;;;;;;488520;242;28234;-74
2022/12/23 06:52:28;;;;;;;2.97;1.30;;;9.90;99.90;;;;;;488489;242;28384;-74
2022/12/23 06:54:29;;;;;;;1.50;1.40;;;9.90;99.90;;;;;;488490;243;27944;-78
2022/12/23 06:56:30;;;;;;;2.20;1.10;;;9.90;99.90;;;;;;488504;242;27758;-80
2022/12/23 06:58:32;;;;;;;2.30;1.33;;;9.90;99.90;;;;;;488507;242;27844;-78
2022/12/23 07:00:33;;;;;;;1.20;1.20;;;9.90;99.90;;;;;;488584;243;27595;-78
2022/12/23 07:02:34;;;;;;;1.47;1.37;;;9.90;99.90;;;;;;488582;242;27944;-78
2022/12/23 07:04:36;;;;;;;2.30;1.30;;;9.90;99.90;;;;;;488563;243;27496;-80
2022/12/23 07:06:38;;;;;;;2.10;1.30;;;9.90;99.90;;;;;;488579;243;28439;-78
2022/12/23 07:08:38;;;;;;;1.27;1.00;;;9.90;99.90;;;;;;488546;243;27950;-77
2022/12/23 07:10:39;;;;;;;1.23;1.10;;;9.90;99.90;;;;;;488610;243;28267;-78
2022/12/23 07:12:40;;;;;;;1.70;1.60;;;9.90;99.90;;;;;;488506;243;29311;-78
2022/12/23 07:14:42;;;;;;;2.70;1.60;;;9.90;99.90;;;;;;488504;242;28236;-78
2022/12/23 07:16:44;;;;;;;1.33;1.30;;;9.90;99.90;;;;;;492508;241;27827;-77
2022/12/23 07:18:44;;;;;;;1.40;1.30;;;9.90;99.90;;;;;;494002;237;27970;-80
2022/12/23 07:20:45;;;;;;;1.90;1.80;;;9.90;99.90;;;;;;494033;241;27815;-81
2022/12/23 07:22:49;;;;;;;1.60;1.50;;;9.90;99.90;;;;;;494099;241;27964;-78
2022/12/23 07:24:48;;;;;;;1.73;1.40;;;10.00;99.90;;;;;;493972;241;28390;-78
2022/12/23 07:26:50;;;;;;;3.03;1.60;;;10.00;99.90;;;;;;494066;241;28539;-78
2022/12/23 07:28:51;;;;;;;1.57;1.47;;;10.00;99.90;;;;;;494057;241;27989;-78
2022/12/23 07:30:52;;;;;;;1.50;1.40;;;10.00;99.90;;;;;;494034;241;27988;-79
2022/12/23 07:32:53;;;;;;;2.40;1.90;;;10.00;99.90;;;;;;494001;241;28080;-81
2022/12/23 07:34:55;;;;;;;1.60;1.50;;;10.00;99.90;;;;;;493841;237;28406;-78
2022/12/23 07:36:57;;;;;;;2.00;1.80;;;10.00;99.90;;;;;;494133;241;27927;-79
2022/12/23 07:38:58;;;;;;;1.47;1.37;;;10.00;99.90;;;;;;493721;237;28063;-80
2022/12/23 07:40:59;;;;;;;2.13;1.93;;;10.00;99.90;;;;;;494044;241;28520;-78
2022/12/23 07:43:00;;;;;;;1.60;1.50;;;10.00;99.90;;;;;;494102;241;28494;-79
2022/12/23 07:45:03;;;;;;;1.63;1.33;;;10.00;99.90;;;;;;493826;241;28481;-79
2022/12/23 07:47:03;;;;;;;3.87;1.70;;;10.00;99.90;;;;;;493949;241;28002;-77
2022/12/23 07:49:04;;;;;;;1.60;1.50;;;10.00;99.90;;;;;;494029;241;27809;-80
2022/12/23 07:51:05;;;;;;;1.70;1.60;;;10.10;99.90;;;;;;493819;239;27948;-79
2022/12/23 07:53:07;;;;;;;2.00;1.83;;;10.10;99.90;;;;;;494055;241;28019;-80
2022/12/23 07:55:08;;;;;;;1.93;1.60;;;10.10;99.90;;;;;;493970;241;27985;-80
2022/12/23 07:57:09;;;;;;;1.80;1.70;;;10.20;99.90;;;;;;493947;241;28102;-78
2022/12/23 07:59:11;;;;;;;1.90;1.80;;;10.20;99.90;;;;;;490715;241;27889;-79
2022/12/23 08:01:12;;;;;;;1.93;1.70;;;10.30;99.90;;;;;;488549;242;27419;-81
2022/12/23 08:03:13;;;;;;;1.90;1.80;;;10.30;99.90;;;;;;488560;242;27778;-80
2022/12/23 08:05:15;;;;;;;2.33;1.50;;;10.30;99.90;;;;;;488590;242;28346;-80
2022/12/23 08:07:15;;;;;;;1.90;1.80;;;10.30;99.90;;;;;;485257;241;28467;-79
2022/12/23 08:09:17;;;;;;;1.93;1.83;;;10.30;99.90;;;;;;483343;246;28510;-78
2022/12/23 08:11:18;;;;;;;3.50;2.30;;;10.20;99.90;;;;;;483342;245;28582;-81
2022/12/23 08:13:19;;;;;;;2.13;1.63;;;10.20;99.90;;;;;;487627;241;27991;-79
2022/12/23 08:15:21;;;;;;;2.30;2.10;;;10.30;99.90;;;;;;494757;236;27924;-78
2022/12/23 08:17:22;;;;;;;5.90;2.33;;;10.30;99.90;;;;;;488078;243;27920;-78
2022/12/23 08:19:23;;;;;;;2.40;2.20;;;10.30;99.90;;;;;;493773;236;27762;-80
2022/12/23 08:21:24;;;;;;;2.57;2.37;;;10.30;99.90;;;;;;493930;236;29158;-79
2022/12/23 08:23:26;;;;;;;1.90;1.80;;;10.30;99.90;;;;;;492796;241;28544;-78
2022/12/23 08:25:27;;;;;;;3.37;2.50;;;10.40;99.90;;;;;;492911;241;28320;-78
2022/12/23 08:27:28;;;;;;;2.13;2.03;;;10.30;99.90;;;;;;493962;241;28002;-79
2022/12/23 08:29:29;;;;;;;1.90;1.80;;;10.40;99.90;;;;;;502853;236;28036;-79
2022/12/23 08:31:31;;;;;;;2.50;2.20;;;10.40;99.90;;;;;;495434;236;27927;-80
2022/12/23 08:33:32;;;;;;;2.30;2.10;;;10.40;99.90;;;;;;493947;241;27924;-79
2022/12/23 08:35:33;;;;;;;2.43;2.10;;;10.40;99.90;;;;;;494049;236;27962;-78
2022/12/23 08:37:34;;;;;;;2.10;2.00;;;10.40;99.90;;;;;;493691;236;28169;-80
2022/12/23 08:39:36;;;;;;;5.80;2.30;;;10.40;99.90;;;;;;494077;241;27814;-79
2022/12/23 08:41:37;;;;;;;2.70;2.07;;;10.40;99.90;;;;;;494026;241;27997;-80
2022/12/23 08:43:38;;;;;;;2.50;1.87;;;10.40;99.90;;;;;;494011;241;27940;-79
2022/12/23 08:45:39;;;;;;;3.27;2.00;;;10.40;99.90;;;;;;494015;241;29183;-79
2022/12/23 08:47:41;;;;;;;1.97;1.87;;;10.40;99.90;;;;;;494016;241;28473;-78
2022/12/23 08:49:42;;;;;;;2.60;2.20;;;10.40;99.90;;;;;;494019;241;28287;-79
2022/12/23 08:51:43;;;;;;;2.30;2.10;;;10.40;99.90;;;;;;494024;241;28011;-79
2022/12/23 08:53:44;;;;;;;5.50;2.10;;;10.40;99.90;;;;;;494042;241;27934;-78
2022/12/23 08:55:46;;;;;;;2.63;1.90;;;10.50;99.90;;;;;;494003;241;27989;-79
2022/12/23 08:57:47;;;;;;;3.80;1.80;;;10.50;99.90;;;;;;494026;241;28003;-78
2022/12/23 08:59:48;;;;;;;2.17;2.07;;;10.50;99.90;;;;;;494011;241;27998;-80
2022/12/23 09:01:49;;;;;;;2.90;1.93;;;10.50;99.90;;;;;;493995;241;27977;-80
2022/12/23 09:03:51;;;;;;;3.10;1.77;;;10.50;99.90;;;;;;493998;241;28183;-78
2022/12/23 09:05:52;;;;;;;2.10;1.90;;;10.60;99.90;;;;;;494038;241;27872;-79
2022/12/23 09:07:53;;;;;;;2.47;2.00;;;10.60;99.90;;;;;;493312;236;27971;-79
2022/12/23 09:09:54;;;;;;;1.93;1.83;;;10.60;99.90;;;;;;495388;236;29471;-80
2022/12/23 09:11:56;;;;;;;1.47;1.40;;;10.70;99.90;;;;;;493239;236;28465;-78
2022/12/23 09:13:57;;;;;;;1.50;1.40;;;10.70;99.90;;;;;;495397;236;28308;-78
2022/12/23 09:15:58;;;;;;;4.53;2.20;;;10.80;99.90;;;;;;494001;241;28079;-79
2022/12/23 09:17:59;;;;;;;8.23;1.90;;;10.70;99.90;;;;;;494025;241;27995;-79
2022/12/23 09:20:01;;;;;;;1.37;1.27;;;10.70;99.90;;;;;;494100;241;28034;-79
2022/12/23 09:22:02;;;;;;;1.73;1.53;;;10.70;99.90;;;;;;493920;241;27957;-79
2022/12/23 09:24:03;;;;;;;1.50;1.40;;;10.70;99.90;;;;;;494049;241;28108;-78
2022/12/23 09:26:04;;;;;;;1.90;1.70;;;10.80;99.90;;;;;;494103;241;27942;-78
2022/12/23 09:28:06;;;;;;;2.00;1.57;;;10.80;99.90;;;;;;494081;241;28134;-80
2022/12/23 09:30:07;;;;;;;3.37;1.63;;;10.80;99.90;;;;;;494036;237;28044;-79
2022/12/23 09:32:08;;;;;;;2.73;1.70;;;10.80;99.90;;;;;;494035;241;27852;-79
2022/12/23 09:34:09;;;;;;;2.77;1.70;;;10.80;99.90;;;;;;494066;241;28675;-79
2022/12/23 09:36:11;;;;;;;2.33;1.70;;;10.80;99.90;;;;;;494030;241;28536;-78
2022/12/23 09:38:12;;;;;;;1.77;1.40;;;10.80;99.90;;;;;;485779;238;28571;-77
2022/12/23 09:40:13;;;;;;;2.00;1.50;;;10.80;99.90;;;;;;475005;250;28085;-78
2022/12/23 09:42:14;;;;;;;1.50;1.40;;;10.80;99.90;;;;;;475039;250;28099;-78
2022/12/23 09:44:16;;;;;;;1.50;1.40;;;10.80;99.90;;;;;;474859;250;28149;-78
2022/12/23 09:46:17;;;;;;;1.53;1.33;;;10.80;99.90;;;;;;475216;250;27880;-78
2022/12/23 09:48:18;;;;;;;2.13;1.37;;;10.80;99.90;;;;;;479299;247;27925;-78
2022/12/23 09:50:20;;;;;;;2.03;1.70;;;10.80;99.90;;;;;;495702;239;27974;-77
2022/12/23 09:52:21;;;;;;;3.33;1.50;;;10.80;99.90;;;;;;479780;248;28124;-77
2022/12/23 09:54:22;;;;;;;2.07;1.50;;;10.80;99.90;;;;;;480244;247;28089;-76
2022/12/23 09:56:23;;;;;;;1.30;1.30;;;10.80;99.90;;;;;;495615;239;27854;-77
2022/12/23 09:58:24;;;;;;;1.50;1.40;;;10.80;99.90;;;;;;479845;248;28566;-78
2022/12/23 10:00:26;;;;;;;1.70;1.60;;;10.90;99.90;;;;;;480240;247;28623;-78
2022/12/23 10:02:27;;;;;;;1.37;1.27;;;10.90;99.90;;;;;;495662;239;28791;-78
2022/12/23 10:04:28;;;;;;;2.20;1.50;;;10.90;99.90;;;;;;479786;248;28013;-78
2022/12/23 10:06:30;;;;;;;1.27;1.20;;;10.90;99.90;;;;;;480201;247;27897;-79
2022/12/23 10:08:31;;;;;;;2.40;1.83;;;10.90;99.90;;;;;;495666;239;27895;-78
2022/12/23 10:10:32;;;;;;;1.90;1.43;;;10.90;99.90;;;;;;479768;248;28329;-78
2022/12/23 10:12:33;;;;;;;1.30;1.30;;;11.00;99.90;;;;;;480189;247;28018;-77
2022/12/23 10:14:35;;;;;;;1.90;1.60;;;11.00;99.90;;;;;;495706;240;28017;-76
2022/12/23 10:16:36;;;;;;;1.50;1.40;;;11.00;99.90;;;;;;479758;248;27972;-79
2022/12/23 10:18:37;;;;;;;1.73;1.63;;;11.10;99.90;;;;;;480234;247;28277;-78
2022/12/23 10:20:38;;;;;;;1.80;1.70;;;11.00;99.90;;;;;;495692;239;28014;-78
2022/12/23 10:22:40;;;;;;;1.77;1.67;;;11.00;99.90;;;;;;479784;248;28560;-79
2022/12/23 10:24:41;;;;;;;1.57;1.47;;;11.00;99.90;;;;;;480250;247;28561;-78
2022/12/23 10:26:42;;;;;;;4.00;1.93;;;11.00;99.90;;;;;;495679;239;28622;-79
2022/12/23 10:28:43;;;;;;;2.13;1.93;;;11.00;99.90;;;;;;479770;248;29462;-77
2022/12/23 10:30:45;;;;;;;5.40;1.97;;;11.10;99.90;;;;;;480299;247;28020;-77
2022/12/23 10:32:46;;;;;;;2.30;2.10;;;11.10;99.90;;;;;;495723;239;27938;-78
2022/12/23 10:34:47;;;;;;;1.33;1.23;;;11.10;99.90;;;;;;479824;248;28132;-77
2022/12/23 10:36:48;;;;;;;1.50;1.40;;;11.00;99.90;;;;;;480287;247;28063;-78
2022/12/23 10:38:50;;;;;;;1.60;1.50;;;11.00;99.90;;;;;;495640;239;28007;-79
2022/12/23 10:40:51;;;;;;;1.90;1.47;;;11.00;99.90;;;;;;479698;248;28115;-78
2022/12/23 10:42:52;;;;;;;2.00;1.77;;;11.00;99.90;;;;;;480144;247;28036;-79
2022/12/23 10:44:54;;;;;;;1.90;1.67;;;11.00;99.90;;;;;;495722;239;27977;-76
2022/12/23 10:46:55;;;;;;;2.20;1.63;;;11.00;99.90;;;;;;479768;248;28118;-77
2022/12/23 10:48:56;;;;;;;1.63;1.53;;;11.00;99.90;;;;;;467600;247;28711;-75
2022/12/23 10:50:57;;;;;;;2.43;2.10;;;11.10;99.90;;;;;;466347;253;28924;-75
2022/12/23 10:52:58;;;;;;;2.90;2.60;;;11.10;99.90;;;;;;466418;253;28142;-74
2022/12/23 10:55:00;;;;;;;4.03;2.67;;;11.00;99.90;;;;;;466414;253;28271;-75
2022/12/23 10:57:01;;;;;;;6.97;3.13;;;11.00;99.90;;;;;;466340;253;28641;-76
2022/12/23 10:59:02;;;;;;;3.10;2.80;;;11.00;99.90;;;;;;466353;253;28283;-76
2022/12/23 11:01:04;;;;;;;3.10;2.80;;;11.00;99.90;;;;;;466369;253;28204;-77
2022/12/23 11:03:05;;;;;;;6.33;3.23;;;11.00;99.90;;;;;;466351;253;28138;-76